Aviation Digital Data Service (ADDS)

Output produced by METARs form (2220 UTC 26 February 2020)
found at http://www.aviationweather.gov/metar/data/
 
EGPF 262150Z AUTO VRB03KT 9999 BKN007/// BKN025/// BKN049/// //////TCU 01/00 Q0998
TAF EGPF 261659Z 2618/2718 23009KT 9999 FEW010 SCT025 
     TEMPO 2618/2718 6000 SHRA SHRASN BKN012CB 
     PROB30 
     TEMPO 2618/2712 25015G25KT 1200 SHSN BKN005 
     BECMG 2712/2715 29012KT 
     TEMPO 2712/2718 29015G25KT